Terminal Aerodrome Forecast
Issued by NWS

Current Version | Previous Version | Text Only | Print | Product List | Glossary On
Versions: 1 2 3 4 5 6 7 8 9 10 11 12 13 14 15 16 17 18 19
000
FTUS43 KAPX 261734
TAFMBL
TAF
KMBL 261734Z 2618/2718 VRB03KT P6SM BKN014 OVC025
     FM261800 VRB03KT P6SM SCT015 SCT030
     FM270200 15005KT 3SM BR OVC008
     FM270700 17006KT 3SM -DZ BR OVC005
     FM271000 17006KT 4SM -RA BR OVC015
     FM271500 19007KT 1 1/2SM -RA BR OVC011
      AMD LTD TO CLD VIS AND WIND=

USA.gov is the U.S. government's official web portal to all federal, state and local government web resources and services.